createdAt,value
2022-11-10T00:00:26.140Z,32.57
2022-11-10T00:05:34.128Z,38.67
2022-11-10T00:10:43.334Z,32.43
2022-11-10T00:16:09.373Z,30.40
2022-11-10T00:21:16.476Z,29.53
2022-11-10T00:26:24.356Z,38.00
2022-11-10T00:31:30.137Z,30.77
2022-11-10T00:36:39.010Z,39.03
2022-11-10T00:41:51.677Z,28.67
2022-11-10T00:46:58.841Z,25.23
2022-11-10T00:52:06.512Z,25.23
2022-11-10T00:57:14.714Z,28.53
2022-11-10T01:02:23.047Z,25.17
2022-11-10T01:07:31.590Z,32.80
2022-11-10T01:12:49.884Z,26.83
2022-11-10T01:17:58.559Z,27.20
2022-11-10T01:23:16.895Z,23.30
2022-11-10T01:28:23.100Z,22.30
2022-11-10T01:33:31.467Z,25.60
2022-11-10T01:38:44.715Z,22.00
2022-11-10T01:44:00.559Z,27.23
2022-11-10T01:49:19.351Z,30.07
2022-11-10T01:54:38.215Z,20.07
2022-11-10T02:00:00.328Z,17.77
2022-11-10T02:05:15.811Z,20.43
2022-11-10T02:10:26.579Z,20.93
2022-11-10T02:15:35.055Z,23.47
2022-11-10T02:20:48.862Z,20.23
2022-11-10T02:25:54.765Z,17.87
2022-11-10T02:31:00.614Z,15.90
2022-11-10T02:36:06.672Z,19.23
2022-11-10T02:41:12.498Z,19.23
2022-11-10T02:46:18.224Z,15.57
2022-11-10T02:51:25.417Z,16.93
2022-11-10T02:56:31.362Z,19.47
2022-11-10T03:01:42.424Z,16.13
2022-11-10T03:06:49.010Z,14.33
2022-11-10T03:11:57.943Z,17.03
2022-11-10T03:17:08.513Z,16.17
2022-11-10T03:22:20.608Z,11.30
2022-11-10T03:27:35.128Z,16.97
2022-11-10T03:32:41.969Z,17.37
2022-11-10T03:37:47.945Z,15.83
2022-11-10T03:42:55.258Z,17.77
2022-11-10T03:48:10.193Z,13.53
2022-11-10T03:53:19.630Z,16.33
2022-11-10T03:58:39.439Z,21.10
2022-11-10T04:04:01.051Z,13.17
2022-11-10T04:09:14.150Z,12.13
2022-11-10T04:14:48.843Z,16.43
2022-11-10T04:20:01.422Z,11.83
2022-11-10T04:25:11.478Z,12.87
2022-11-10T04:30:17.530Z,12.13
2022-11-10T04:35:24.929Z,14.83
2022-11-10T04:40:30.943Z,10.77
2022-11-10T04:45:46.793Z,11.57
2022-11-10T04:50:52.577Z,15.50
2022-11-10T04:56:04.725Z,14.87
2022-11-10T05:01:15.834Z,14.80
2022-11-10T05:06:25.762Z,8.90
2022-11-10T05:11:43.277Z,13.93
2022-11-10T05:16:54.416Z,16.30
2022-11-10T05:22:04.148Z,12.73
2022-11-10T05:27:27.896Z,14.90
2022-11-10T05:32:54.306Z,11.23
2022-11-10T05:38:00.776Z,16.20
2022-11-10T05:43:06.276Z,17.00
2022-11-10T05:48:14.739Z,12.73
2022-11-10T05:53:33.777Z,12.03
2022-11-10T06:44:59.364Z,10.23
2022-11-10T06:50:12.766Z,12.57
2022-11-10T06:55:25.850Z,7.37
2022-11-10T07:00:33.761Z,11.27
2022-11-10T07:05:44.798Z,8.03
2022-11-10T07:11:01.741Z,7.83
2022-11-10T07:16:12.850Z,11.83
2022-11-10T07:21:21.053Z,11.97
2022-11-10T07:26:31.623Z,8.30
2022-11-10T07:31:42.434Z,8.83
2022-11-10T07:36:55.582Z,10.03
2022-11-10T07:42:11.573Z,6.13
2022-11-10T07:53:22.146Z,7.13
2022-11-10T07:58:29.854Z,8.50
2022-11-10T08:03:39.739Z,6.90
2022-11-10T08:08:47.351Z,8.27
2022-11-10T08:13:52.844Z,3.97
2022-11-10T08:19:00.427Z,6.27
2022-11-10T08:24:08.521Z,7.03
2022-11-10T08:29:16.427Z,8.93
2022-11-10T08:34:25.702Z,6.23
2022-11-10T08:39:41.051Z,10.40
2022-11-10T08:44:44.773Z,3.60
2022-11-10T08:49:50.930Z,4.57
2022-11-10T08:54:57.701Z,10.53
2022-11-10T09:00:03.415Z,5.50
2022-11-10T09:05:13.670Z,4.53
2022-11-10T09:10:19.157Z,6.13
2022-11-10T09:15:40.183Z,5.17
2022-11-10T09:20:46.741Z,4.33
2022-11-10T09:26:01.242Z,12.93
2022-11-10T09:31:07.013Z,3.13
2022-11-10T09:36:13.297Z,3.37
2022-11-10T09:41:27.237Z,5.33
2022-11-10T09:46:41.605Z,3.77
2022-11-10T09:51:53.762Z,4.60
2022-11-10T10:02:42.616Z,4.40
2022-11-10T10:07:58.485Z,3.20
2022-11-10T10:13:23.662Z,5.40
2022-11-10T10:18:48.897Z,5.23
2022-11-10T10:24:11.568Z,5.60
2022-11-10T10:29:13.094Z,7.53
2022-11-10T10:34:31.861Z,9.50
2022-11-10T10:39:47.482Z,1.93
2022-11-10T10:45:29.268Z,9.33
2022-11-10T10:50:38.060Z,4.60
2022-11-10T10:55:56.273Z,11.23
2022-11-10T11:01:07.580Z,4.53
2022-11-10T11:06:34.052Z,3.30
2022-11-10T11:11:45.162Z,1.63
2022-11-10T11:17:01.329Z,4.07
2022-11-10T11:22:31.158Z,1.43
2022-11-10T11:27:39.500Z,2.30
2022-11-10T11:32:53.251Z,6.03
2022-11-10T11:38:13.098Z,7.13
2022-11-10T11:43:38.151Z,5.40
2022-11-10T11:49:12.990Z,3.17
2022-11-10T11:55:02.793Z,7.37
2022-11-10T12:00:25.962Z,2.53
2022-11-10T12:05:52.126Z,6.73
2022-11-10T12:16:58.499Z,6.83
2022-11-10T12:22:27.215Z,8.07
2022-11-10T12:27:36.762Z,6.33
2022-11-10T12:32:56.602Z,3.93
2022-11-10T12:38:19.800Z,8.30
2022-11-10T12:43:40.178Z,12.23
2022-11-10T12:48:49.541Z,10.63
2022-11-10T12:53:55.352Z,24.73
2022-11-10T12:59:24.235Z,5.57
2022-11-10T13:04:33.642Z,3.80
2022-11-10T13:09:42.282Z,2.30
2022-11-10T13:14:51.419Z,1.87
2022-11-10T13:20:20.741Z,6.80
2022-11-10T13:25:41.212Z,3.70
2022-11-10T13:31:31.834Z,3.80
2022-11-10T13:36:45.858Z,1.30
2022-11-10T13:42:04.130Z,1.67
2022-11-10T13:47:12.395Z,0.97
2022-11-10T13:52:26.953Z,1.73
2022-11-10T13:57:38.839Z,2.40
2022-11-10T14:02:52.564Z,3.27
2022-11-10T14:08:12.579Z,7.13
2022-11-10T14:13:47.643Z,9.20
2022-11-10T14:19:22.855Z,1.37
2022-11-10T14:24:40.566Z,5.50
2022-11-10T14:30:13.340Z,2.50
2022-11-10T14:35:21.550Z,2.23
2022-11-10T14:40:31.452Z,9.53
2022-11-10T14:45:47.787Z,13.13
2022-11-10T14:50:55.104Z,3.93
2022-11-10T14:56:02.848Z,3.70
2022-11-10T15:01:10.264Z,4.70
2022-11-10T15:06:16.403Z,4.70
2022-11-10T15:11:42.428Z,8.70
2022-11-10T15:17:05.260Z,6.80
2022-11-10T15:22:19.380Z,3.67
2022-11-10T15:27:30.195Z,11.37
2022-11-10T15:32:38.690Z,17.07
2022-11-10T15:37:45.528Z,10.37
2022-11-10T15:43:11.708Z,7.27
2022-11-10T15:48:20.150Z,35.97
2022-11-10T15:53:47.198Z,25.33
2022-11-10T15:58:57.849Z,10.50
2022-11-10T16:04:07.818Z,6.53
2022-11-10T16:09:14.657Z,10.33
2022-11-10T16:14:20.474Z,16.20
2022-11-10T16:19:31.232Z,14.03
2022-11-10T16:24:36.830Z,10.83
2022-11-10T16:29:49.071Z,13.87
2022-11-10T16:34:58.011Z,10.90
2022-11-10T16:40:06.511Z,8.77
2022-11-10T16:45:50.031Z,15.73
2022-11-10T16:51:03.482Z,10.47
2022-11-10T16:56:15.963Z,8.13
2022-11-10T17:01:39.678Z,8.73
2022-11-10T17:06:48.694Z,19.33
2022-11-10T17:11:55.559Z,11.50
2022-11-10T17:17:01.100Z,12.30
2022-11-10T17:22:06.511Z,16.07
2022-11-10T17:27:12.102Z,19.33
2022-11-10T17:32:24.228Z,13.37
2022-11-10T17:37:26.116Z,17.47
2022-11-10T17:42:31.591Z,32.73
2022-11-10T17:47:40.165Z,17.23
2022-11-10T17:52:54.766Z,16.00
2022-11-10T17:58:12.348Z,22.07
2022-11-10T18:03:25.443Z,16.77
2022-11-10T18:08:37.955Z,21.00
2022-11-10T18:13:45.104Z,12.80
2022-11-10T18:18:52.768Z,21.20
2022-11-10T18:24:01.489Z,11.17
2022-11-10T18:29:29.800Z,16.20
2022-11-10T18:34:42.852Z,25.80
2022-11-10T18:39:57.981Z,20.27
2022-11-10T18:50:38.532Z,35.95
2022-11-10T18:55:59.184Z,19.83
2022-11-10T19:01:23.967Z,38.13
2022-11-10T19:06:51.705Z,37.93
2022-11-10T19:12:26.611Z,44.93
2022-11-10T19:18:20.891Z,85.30
2022-11-10T19:23:37.215Z,108.80
2022-11-10T19:28:55.582Z,85.53
2022-11-10T19:34:25.897Z,75.03
2022-11-10T19:40:05.054Z,58.70
2022-11-10T19:45:19.960Z,59.63
2022-11-10T19:57:11.636Z,90.03
2022-11-10T20:02:34.832Z,78.03
2022-11-10T20:47:48.133Z,23.13
2022-11-10T20:53:04.342Z,20.03
2022-11-10T20:58:34.798Z,17.20
2022-11-10T21:15:03.513Z,21.13
2022-11-10T21:20:09.479Z,23.87
2022-11-10T21:25:16.655Z,15.20
2022-11-10T21:30:31.352Z,16.03
2022-11-10T21:35:47.088Z,8.97
2022-11-10T21:41:09.225Z,7.23
2022-11-10T21:46:35.640Z,6.87
2022-11-10T21:51:49.644Z,6.20
2022-11-10T21:56:56.451Z,17.07
2022-11-10T22:02:01.961Z,14.43
2022-11-10T22:07:25.659Z,17.63
2022-11-10T22:12:48.317Z,15.07
2022-11-10T22:18:11.263Z,14.90
2022-11-10T22:23:16.659Z,11.60
2022-11-10T22:28:25.842Z,13.20
2022-11-10T22:33:39.824Z,15.47
2022-11-10T22:39:01.994Z,12.00
2022-11-10T22:44:10.722Z,16.23
2022-11-10T22:49:32.555Z,15.60
2022-11-10T23:00:24.240Z,6.17
2022-11-10T23:05:41.807Z,8.13
2022-11-10T23:11:07.185Z,8.40
2022-11-10T23:16:34.415Z,5.63
2022-11-10T23:21:52.130Z,7.87
2022-11-10T23:27:24.480Z,7.40
2022-11-10T23:32:54.233Z,4.23
2022-11-10T23:38:11.079Z,9.87
2022-11-10T23:43:31.627Z,9.27
2022-11-10T23:48:43.868Z,6.80
2022-11-10T23:54:00.339Z,4.17
2022-11-10T23:59:10.676Z,9.50
